Home   Weather   Turkey   Kemer   Past weeks
Flag for Turkey

Past Weather in Kemer, Turkey — Yesterday and Last 2 Weeks

Currently: 66 °F. Clear. (Weather station: Antalya Airport, Turkey). See more current weather

Past Weather in Kemer — Graph

°F

Kemer Temperature Yesterday

Maximum temperature yesterday: 86 °F (at 12:50 pm)
Minimum temperature yesterday: 70 °F (at 3:50 am)
Average temperature yesterday: 77 °F

High & Low Weather Summary for the Past Weeks

 TemperatureHumidityPressure
High88 °F (May 21, 9:20 am)100% (May 12, 6:20 am)30.09 "Hg (May 12, 6:20 am)
Low57 °F (May 16, 4:50 am)17% (May 14, 12:50 pm)29.65 "Hg (May 11, 3:20 am)
Average72 °F66%29.86 "Hg
* Reported May 11 3:20 am — May 26 3:50 am, Kemer. Weather by CustomWeather, © 2024

Note: Actual official high and low records may vary slightly from our data, if they occured in-between our weather recording intervals... More about our weather records

Kemer Weather History for the Previous 24 Hours

Scroll right to see more
 ConditionsComfort  
Time TempWeatherWind HumidityBarometerVisibility
3:50 am
Sun, May 26
64 °FClear.2 mph78%29.77 "Hg10 mi
3:20 am64 °FClear.5 mph83%29.77 "Hg10 mi
2:50 am66 °FClear.7 mph73%29.80 "Hg10 mi
2:20 am68 °FClear.6 mph78%29.80 "Hg10 mi
1:50 am66 °FClear.5 mph83%29.80 "Hg10 mi
1:20 am66 °FClear.5 mph78%29.80 "Hg10 mi
12:50 am68 °FPassing clouds.5 mph78%29.80 "HgN/A
12:20 am70 °FClear.2 mph73%29.80 "Hg10 mi
11:50 pm
Sat, May 25
70 °FClear.3 mph78%29.80 "Hg10 mi
11:20 pm72 °FClear.2 mph69%29.83 "Hg10 mi
10:50 pm72 °FPassing clouds.5 mph73%29.83 "HgN/A
9:50 pm72 °FPassing clouds.6 mph78%29.83 "HgN/A
9:20 pm72 °FClear.10 mph78%29.80 "Hg10 mi
8:50 pm73 °FClear.10 mph74%29.77 "Hg10 mi
8:20 pm73 °FClear.10 mph78%29.77 "Hg10 mi
7:50 pm73 °FPassing clouds.10 mph74%29.77 "HgN/A
7:20 pm75 °FPassing clouds.10 mph65%29.74 "HgN/A
6:50 pm77 °FPassing clouds.9 mph61%29.74 "HgN/A
6:20 pm77 °FPassing clouds.10 mph57%29.71 "HgN/A
5:50 pm79 °FPassing clouds.16 mph54%29.71 "HgN/A
5:20 pm81 °FPassing clouds.16 mph45%29.71 "HgN/A
4:50 pm81 °FPassing clouds.18 mph42%29.71 "HgN/A
4:20 pm82 °FPassing clouds.18 mph37%29.74 "HgN/A
3:50 pm84 °FPassing clouds.18 mph35%29.74 "HgN/A
3:20 pm84 °FPassing clouds.18 mph31%29.74 "HgN/A
2:50 pm84 °FPassing clouds.15 mph31%29.74 "HgN/A
2:20 pm84 °FSunny.15 mph31%29.74 "Hg10 mi
1:50 pm86 °FSunny.13 mph31%29.74 "Hg10 mi
1:20 pm86 °FSunny.6 mph25%29.74 "Hg10 mi
12:50 pm86 °FPassing clouds.8 mph25%29.77 "HgN/A
12:20 pm84 °FPassing clouds.12 mph25%29.77 "HgN/A
11:50 am84 °FPassing clouds.10 mph25%29.77 "HgN/A
11:20 am82 °FSunny.15 mph26%29.77 "Hg10 mi
10:50 am82 °FSunny.17 mph26%29.77 "Hg10 mi
10:20 am81 °FPassing clouds.16 mph28%29.77 "HgN/A
9:50 am79 °FSunny.23 mph28%29.77 "Hg10 mi
9:20 am77 °FSunny.23 mph32%29.77 "Hg10 mi
8:50 am77 °FSunny.18 mph34%29.80 "Hg10 mi
8:20 am75 °FSunny.18 mph36%29.80 "Hg10 mi
7:50 am73 °FSunny.17 mph38%29.77 "Hg10 mi
7:20 am72 °FPassing clouds.12 mph41%29.77 "HgN/A
6:50 am72 °FPassing clouds.10 mph41%29.77 "HgN/A
6:20 am70 °FPassing clouds.6 mph43%29.77 "HgN/A
5:50 am72 °FSunny.17 mph41%29.77 "Hg10 mi
5:20 am72 °FClear.20 mph41%29.77 "Hg10 mi
Weather by CustomWeather, © 2024

See weather overview